Terminal Aerodrome Forecast
Issued by NWS

Home | Current Version | Previous Version | Text Only | Print | Product List | Glossary On
Versions: 1 2 3 4 5 6 7 8 9 10 11 12 13 14 15 16 17 18 19
000
FTUS43 KPAH 022336
TAFCGI
TAF
KCGI 022336Z 0300/0324 35005KT P6SM FEW035 SCT090
     FM030400 36003KT P6SM VCSH SCT025 BKN040
     FM030700 35003KT 4SM BR SCT007 BKN015
     FM031400 VRB04KT P6SM SCT025 BKN040=

USA.gov is the U.S. government's official web portal to all federal, state and local government web resources and services.